createdAt,value
2018-06-27T14:44:18.122Z,52.48
2018-06-27T14:45:18.129Z,51.90
2018-06-27T14:47:11.324Z,50.93
2018-06-27T14:48:11.327Z,50.55
2018-06-27T14:50:04.467Z,51.01
2018-06-27T14:51:04.512Z,51.10
2018-06-27T14:52:58.082Z,51.49
2018-06-27T14:53:58.094Z,51.49
2018-06-27T14:55:51.278Z,51.59
2018-06-27T14:56:51.292Z,52.17
2018-06-27T14:58:56.178Z,51.68
2018-06-27T14:59:56.170Z,52.17
2018-06-27T15:02:01.753Z,51.78
2018-06-27T15:03:01.769Z,51.97
2018-06-27T15:04:55.253Z,51.59
2018-06-27T15:05:55.205Z,51.78
2018-06-27T15:07:51.512Z,51.78
2018-06-27T15:08:48.449Z,51.87
2018-06-27T15:10:53.291Z,53.42
2018-06-27T15:11:53.322Z,53.42
2018-06-27T15:13:46.510Z,52.36
2018-06-27T15:14:46.504Z,51.59
2018-06-27T15:16:39.730Z,52.36
2018-06-27T15:17:39.710Z,52.17
2018-06-27T15:19:32.883Z,51.10
2018-06-27T15:20:32.982Z,51.20
2018-06-27T15:22:26.096Z,51.20
2018-06-27T15:23:26.152Z,52.26
2018-06-27T15:25:19.273Z,51.68
2018-06-27T15:26:19.285Z,51.97
2018-06-27T15:28:12.609Z,52.17
2018-06-27T15:29:12.607Z,51.49
2018-06-27T15:31:05.769Z,52.26
2018-06-27T15:32:05.795Z,51.49
2018-06-27T15:34:01.400Z,50.62
2018-06-27T15:35:00.929Z,51.78
2018-06-27T15:37:11.408Z,53.25
2018-06-27T15:38:11.435Z,53.23
2018-06-27T15:40:04.634Z,52.26
2018-06-27T15:41:04.641Z,53.25
2018-06-27T15:42:57.818Z,52.17
2018-06-27T15:43:57.834Z,52.29
2018-06-27T15:45:51.332Z,52.09
2018-06-27T15:46:51.068Z,52.26
2018-06-27T15:48:44.234Z,52.07
2018-06-27T15:49:44.340Z,52.36
2018-06-27T15:51:37.530Z,51.78
2018-06-27T15:52:37.484Z,51.68
2018-06-27T15:54:30.682Z,51.59
2018-06-27T15:55:30.714Z,52.07
2018-06-27T15:57:23.924Z,51.97
2018-06-27T15:58:23.949Z,52.17
2018-06-27T16:00:17.134Z,52.58
2018-06-27T16:01:17.143Z,51.87
2018-06-27T16:03:10.335Z,51.20
2018-06-27T16:04:10.398Z,50.91
2018-06-27T16:06:03.635Z,50.04
2018-06-27T16:07:03.564Z,50.13
2018-06-27T16:08:56.703Z,50.13
2018-06-27T16:09:56.725Z,51.49
2018-06-27T16:11:49.959Z,51.97
2018-06-27T16:12:49.928Z,51.20
2018-06-27T16:14:43.109Z,52.17
2018-06-27T16:15:43.131Z,51.59
2018-06-27T16:17:36.351Z,52.45
2018-06-27T16:18:36.802Z,51.59
2018-06-27T16:20:29.672Z,51.97
2018-06-27T16:21:29.623Z,51.20
2018-06-27T16:23:22.794Z,53.13
2018-06-27T16:24:22.819Z,51.97
2018-06-27T16:26:16.028Z,51.97
2018-06-27T16:29:09.240Z,51.68
2018-06-27T16:30:09.221Z,52.36
2018-06-27T16:32:02.402Z,51.78
2018-06-27T16:33:02.417Z,51.10
2018-06-27T16:34:02.430Z,51.20
2018-06-27T16:35:02.474Z,51.01
2018-06-27T16:36:02.499Z,51.01
2018-06-27T16:37:02.524Z,52.07
2018-06-27T16:38:02.550Z,51.51
2018-06-27T16:39:02.583Z,50.65
2018-06-27T16:40:02.621Z,50.74
2018-06-27T16:41:02.648Z,50.55
2018-06-27T16:42:02.678Z,49.95
2018-06-27T16:43:02.695Z,48.61
2018-06-27T16:44:02.789Z,48.71
2018-06-27T16:45:02.779Z,48.81
2018-06-27T16:46:02.800Z,49.77
2018-06-27T16:47:02.836Z,50.13
2018-06-27T16:48:02.852Z,50.07
2018-06-27T16:49:03.868Z,49.95
2018-06-27T16:50:02.949Z,49.97
2018-06-27T16:51:03.079Z,49.85
2018-06-27T16:52:02.974Z,49.07
2018-06-27T16:53:03.008Z,49.65
2018-06-27T16:54:03.031Z,49.55
2018-06-27T16:55:03.061Z,50.13
2018-06-27T16:56:03.091Z,49.95
2018-06-27T16:57:03.177Z,50.13
2018-06-27T16:58:03.148Z,49.95
2018-06-27T16:59:03.181Z,50.23
2018-06-27T17:00:03.199Z,50.33
2018-06-27T17:01:03.240Z,49.95
2018-06-27T17:02:03.289Z,50.13
2018-06-27T17:03:03.289Z,49.85
2018-06-27T17:04:03.377Z,50.91
2018-06-27T17:05:03.350Z,50.71
2018-06-27T17:06:03.382Z,50.43
2018-06-27T17:07:03.486Z,50.81
2018-06-27T17:08:03.454Z,51.10
2018-06-27T17:09:03.477Z,51.68
2018-06-27T17:10:03.500Z,51.01
2018-06-27T17:11:03.537Z,51.20
2018-06-27T17:12:03.558Z,50.91
2018-06-27T17:13:04.639Z,50.91
2018-06-27T17:14:03.620Z,51.20
2018-06-27T17:15:03.645Z,50.91
2018-06-27T17:16:03.681Z,51.29
2018-06-27T17:17:03.724Z,51.39
2018-06-27T17:18:03.753Z,50.91
2018-06-27T17:19:03.853Z,51.49
2018-06-27T17:20:03.798Z,51.49
2018-06-27T17:21:03.835Z,50.81
2018-06-27T17:22:03.864Z,51.01
2018-06-27T17:23:04.065Z,54.49
2018-06-27T17:24:04.648Z,59.22
2018-06-27T17:25:03.952Z,62.66
2018-06-27T17:26:03.977Z,63.63
2018-06-27T17:27:04.008Z,62.66
2018-06-27T17:28:04.030Z,61.22
2018-06-27T17:29:04.121Z,61.60
2018-06-27T17:30:04.094Z,61.22
2018-06-27T17:31:04.117Z,59.45
2018-06-27T17:32:04.667Z,59.38
2018-06-27T17:33:05.145Z,61.38
2018-06-27T17:34:04.217Z,58.19
2018-06-27T17:35:04.317Z,58.10
2018-06-27T17:36:04.277Z,58.51
2018-06-27T17:37:04.294Z,59.55
2018-06-27T17:38:04.344Z,59.16
2018-06-27T17:39:04.368Z,58.39
2018-06-27T17:40:04.383Z,59.16
2018-06-27T17:41:04.413Z,60.22
2018-06-27T17:42:04.461Z,57.90
2018-06-27T17:43:04.489Z,58.58
2018-06-27T17:44:04.505Z,59.06
2018-06-27T17:45:04.541Z,58.68
2018-06-27T17:46:04.637Z,58.48
2018-06-27T17:47:04.590Z,57.52
2018-06-27T17:48:04.626Z,57.04
2018-06-27T17:49:04.652Z,57.62
2018-06-27T17:50:04.702Z,57.71
2018-06-27T17:51:04.718Z,58.48
2018-06-27T17:52:04.772Z,58.29
2018-06-27T17:53:04.767Z,58.29
2018-06-27T17:54:04.836Z,58.39
2018-06-27T17:55:04.842Z,58.10
2018-06-27T17:56:04.889Z,58.29
2018-06-27T17:57:04.905Z,58.48
2018-06-27T17:58:04.914Z,58.48
2018-06-27T17:59:04.966Z,57.32
2018-06-27T18:00:04.980Z,58.29
2018-06-27T18:01:05.008Z,57.52
2018-06-27T18:02:05.056Z,58.58
2018-06-27T18:03:05.069Z,58.87
2018-06-27T18:04:05.091Z,60.22
2018-06-27T18:05:05.128Z,57.32
2018-06-27T18:06:05.164Z,59.25
2018-06-27T18:07:05.179Z,59.25
2018-06-27T18:08:05.249Z,58.29
2018-06-27T18:09:05.262Z,57.52
2018-06-27T18:10:05.271Z,58.10
2018-06-27T18:11:05.307Z,59.25
2018-06-27T18:12:05.343Z,59.35
2018-06-27T18:13:05.359Z,59.16
2018-06-27T18:14:05.387Z,58.58
2018-06-27T18:15:05.422Z,57.14
2018-06-27T18:16:05.455Z,57.42
2018-06-27T18:17:05.486Z,58.29
2018-06-27T18:18:05.513Z,58.00
2018-06-27T18:19:05.539Z,56.84
2018-06-27T18:20:05.582Z,56.36
2018-06-27T18:21:05.600Z,57.32
2018-06-27T18:22:05.640Z,56.84
2018-06-27T18:23:05.694Z,56.46
2018-06-27T18:24:05.809Z,56.26
2018-06-27T18:25:05.736Z,55.40
2018-06-27T18:26:05.785Z,56.07
2018-06-27T18:27:05.771Z,55.78
2018-06-27T18:28:05.819Z,55.98
2018-06-27T18:29:05.880Z,56.74
2018-06-27T18:30:05.866Z,56.56
2018-06-27T18:31:05.897Z,57.71
2018-06-27T18:32:05.935Z,55.98
2018-06-27T18:33:05.969Z,56.84
2018-06-27T18:35:06.108Z,56.84
2018-06-27T18:36:06.266Z,56.36
2018-06-27T18:37:06.657Z,55.68
2018-06-27T18:38:06.098Z,56.07
2018-06-27T18:39:06.171Z,56.36
2018-06-27T18:40:06.171Z,56.56
2018-06-27T18:41:06.216Z,55.98
2018-06-27T18:42:06.256Z,56.74
2018-06-27T18:43:06.248Z,55.98
2018-06-27T18:44:06.310Z,56.36
2018-06-27T18:45:06.303Z,56.84
2018-06-27T18:46:06.337Z,56.16
2018-06-27T18:47:06.361Z,57.42
2018-06-27T18:48:06.399Z,57.42
2018-06-27T18:49:06.438Z,57.14
2018-06-27T18:50:06.450Z,56.84
2018-06-27T18:51:06.486Z,56.65
2018-06-27T18:52:06.533Z,57.52
2018-06-27T18:53:06.590Z,58.00
2018-06-27T18:54:06.634Z,57.52
2018-06-27T18:55:06.629Z,57.90
2018-06-27T18:56:06.628Z,58.00
2018-06-27T18:57:06.676Z,57.71
2018-06-27T18:58:06.721Z,57.62
2018-06-27T18:59:06.838Z,57.23
2018-06-27T19:00:07.269Z,57.52
2018-06-27T19:01:06.830Z,58.10
2018-06-27T19:02:06.825Z,57.71
2018-06-27T19:03:06.883Z,57.32
2018-06-27T19:04:06.877Z,57.39
2018-06-27T19:05:06.914Z,57.49
2018-06-27T19:06:06.935Z,58.65
2018-06-27T19:07:06.980Z,57.68
2018-06-27T19:08:06.983Z,57.14
2018-06-27T19:09:07.032Z,57.49
2018-06-27T19:10:07.050Z,58.36
2018-06-27T19:11:07.089Z,58.55
2018-06-27T19:12:07.118Z,58.26
2018-06-27T19:13:07.155Z,58.07
2018-06-27T19:14:07.173Z,59.42
2018-06-27T19:15:07.189Z,58.07
2018-06-27T19:16:07.262Z,58.17
2018-06-27T19:17:07.250Z,58.94
2018-06-27T19:18:07.397Z,59.42
2018-06-27T19:19:07.391Z,58.26
2018-06-27T19:20:07.337Z,59.03
2018-06-27T19:21:07.354Z,59.13
2018-06-27T19:22:07.400Z,58.94
2018-06-27T19:23:07.434Z,57.49
2018-06-27T19:24:07.532Z,57.97
2018-06-27T19:25:07.496Z,60.19
2018-06-27T19:26:07.538Z,58.94
2018-06-27T19:27:07.546Z,59.03
2018-06-27T19:28:07.585Z,61.35
2018-06-27T19:29:07.626Z,59.52
2018-06-27T19:30:07.639Z,58.55
2018-06-27T19:31:07.693Z,59.13
2018-06-27T19:32:07.686Z,59.61
2018-06-27T19:33:07.757Z,60.19
2018-06-27T19:34:07.750Z,59.03
2018-06-27T19:35:07.876Z,58.94
2018-06-27T19:36:07.835Z,60.86
2018-06-27T19:37:07.886Z,59.80
2018-06-27T19:38:07.888Z,61.06
2018-06-27T19:39:07.933Z,59.23
2018-06-27T19:40:07.950Z,59.42
2018-06-27T19:41:08.107Z,59.32
2018-06-27T19:42:07.984Z,60.48
2018-06-27T19:43:08.017Z,60.38
2018-06-27T19:44:08.039Z,62.22
2018-06-27T19:45:08.087Z,61.54
2018-06-27T19:46:08.121Z,61.83
2018-06-27T19:47:08.132Z,61.16
2018-06-27T19:48:08.181Z,60.86
2018-06-27T19:49:08.197Z,60.86
2018-06-27T19:50:08.202Z,62.51
2018-06-27T19:51:08.239Z,62.02
2018-06-27T19:52:08.280Z,62.89
2018-06-27T19:53:08.289Z,62.60
2018-06-27T19:54:08.330Z,62.99
2018-06-27T19:55:08.474Z,63.09
2018-06-27T19:56:08.385Z,63.09
2018-06-27T19:57:08.420Z,63.63
2018-06-27T19:58:08.436Z,65.40
2018-06-27T19:59:08.469Z,64.63
2018-06-27T20:00:08.510Z,64.34
2018-06-27T20:01:08.549Z,64.63
2018-06-27T20:02:08.628Z,65.30
2018-06-27T20:03:08.608Z,65.11
2018-06-27T20:04:08.629Z,64.92
2018-06-27T20:05:08.637Z,65.69
2018-06-27T20:06:08.677Z,66.43
2018-06-27T20:07:08.744Z,66.66
2018-06-27T20:08:08.753Z,66.36
2018-06-27T20:09:08.759Z,66.91
2018-06-27T20:10:08.839Z,67.49
2018-06-27T20:11:08.827Z,67.40
2018-06-27T20:12:08.846Z,67.30
2018-06-27T20:13:08.961Z,68.35
2018-06-27T20:14:08.952Z,67.78
2018-06-27T20:15:09.013Z,68.26
2018-06-27T20:16:09.035Z,68.26
2018-06-27T20:17:08.997Z,68.84
2018-06-27T20:18:09.028Z,69.03
2018-06-27T20:19:09.117Z,69.13
2018-06-27T20:20:09.103Z,69.42
2018-06-27T20:21:09.112Z,69.42
2018-06-27T20:22:09.225Z,69.23
2018-06-27T20:23:09.190Z,69.23
2018-06-27T20:24:09.201Z,69.61
2018-06-27T20:25:09.247Z,69.90
2018-06-27T20:26:09.268Z,69.80
2018-06-27T20:27:09.310Z,70.28
2018-06-27T20:28:09.329Z,70.09
2018-06-27T20:29:09.372Z,70.00
2018-06-27T20:30:09.389Z,70.38
2018-06-27T20:31:09.450Z,70.09
2018-06-27T20:32:09.451Z,70.19
2018-06-27T20:33:09.472Z,70.38
2018-06-27T20:34:09.499Z,70.28
2018-06-27T20:35:09.522Z,70.38
2018-06-27T20:36:09.557Z,70.76
2018-06-27T20:37:09.633Z,70.76
2018-06-27T20:38:09.624Z,70.57
2018-06-27T20:39:09.736Z,71.34
2018-06-27T20:40:09.855Z,70.86
2018-06-27T20:41:10.120Z,71.44
2018-06-27T20:42:09.732Z,71.25
2018-06-27T20:43:09.771Z,70.76
2018-06-27T20:44:09.784Z,71.15
2018-06-27T20:45:09.807Z,70.96
2018-06-27T20:46:09.959Z,71.64
2018-06-27T20:47:09.882Z,71.60
2018-06-27T20:48:09.911Z,71.12
2018-06-27T20:49:10.000Z,71.31
2018-06-27T20:50:09.963Z,71.41
2018-06-27T20:51:09.989Z,71.31
2018-06-27T20:52:10.009Z,71.31
2018-06-27T20:53:10.055Z,71.60
2018-06-27T20:54:10.088Z,71.12
2018-06-27T20:55:10.129Z,71.60
2018-06-27T20:56:10.125Z,71.60
2018-06-27T20:57:10.224Z,71.22
2018-06-27T20:58:10.187Z,71.12
2018-06-27T20:59:10.235Z,71.31
2018-06-27T21:00:10.247Z,71.31
2018-06-27T21:01:10.347Z,71.70
2018-06-27T21:02:10.321Z,71.79
2018-06-27T21:03:10.333Z,72.08
2018-06-27T21:04:10.366Z,71.98
2018-06-27T21:05:10.394Z,71.89
2018-06-27T21:06:10.478Z,72.37
2018-06-27T21:07:10.468Z,71.89
2018-06-27T21:08:10.494Z,71.79
2018-06-27T21:09:10.508Z,72.27
2018-06-27T21:10:10.585Z,71.50
2018-06-27T21:11:10.569Z,72.85
2018-06-27T21:12:10.597Z,71.89
2018-06-27T21:13:10.636Z,72.27
2018-06-27T21:14:10.659Z,71.89
2018-06-27T21:15:10.685Z,72.85
2018-06-27T21:16:10.733Z,72.18
2018-06-27T21:17:10.751Z,72.85
2018-06-27T21:18:10.794Z,72.95
2018-06-27T21:19:10.816Z,72.95
2018-06-27T21:20:10.840Z,72.37
2018-06-27T21:21:10.860Z,72.85
2018-06-27T21:22:10.906Z,73.24
2018-06-27T21:23:10.925Z,72.66
2018-06-27T21:24:10.952Z,73.05
2018-06-27T21:25:10.972Z,72.47
2018-06-27T21:26:11.009Z,72.56
2018-06-27T21:27:11.035Z,73.39
2018-06-27T21:28:11.063Z,72.63
2018-06-27T21:29:11.094Z,73.20
2018-06-27T21:31:11.193Z,72.47
2018-06-27T21:32:11.236Z,73.39
2018-06-27T21:33:11.254Z,72.81
2018-06-27T21:34:11.283Z,72.95
2018-06-27T21:35:11.314Z,72.95
2018-06-27T21:36:11.346Z,72.63
2018-06-27T21:37:32.389Z,73.05
2018-06-27T21:38:11.395Z,73.10
2018-06-27T21:39:11.440Z,72.91
2018-06-27T21:40:11.453Z,73.20
2018-06-27T21:41:11.484Z,73.01
2018-06-27T21:42:11.529Z,73.33
2018-06-27T21:43:32.568Z,73.30
2018-06-27T21:44:11.574Z,73.20
2018-06-27T21:45:11.602Z,74.36
2018-06-27T21:46:11.758Z,73.20
2018-06-27T21:47:12.314Z,74.16
2018-06-27T21:48:11.705Z,73.58
2018-06-27T21:49:32.735Z,73.30
2018-06-27T21:50:11.738Z,74.07
2018-06-27T21:51:11.796Z,74.07
2018-06-27T21:52:11.799Z,73.88
2018-06-27T21:53:11.845Z,73.58
2018-06-27T21:54:11.871Z,73.78
2018-06-27T21:55:32.907Z,73.20
2018-06-27T21:56:11.924Z,73.30
2018-06-27T21:57:12.108Z,73.78
2018-06-27T21:58:11.992Z,73.58
2018-06-27T21:59:12.041Z,73.88
2018-06-27T22:00:12.056Z,74.26
2018-06-27T22:01:33.088Z,74.36
2018-06-27T22:02:12.094Z,73.49
2018-06-27T22:03:12.139Z,73.88
2018-06-27T22:04:12.155Z,73.58
2018-06-27T22:05:12.187Z,74.26
2018-06-27T22:06:12.260Z,74.55
2018-06-27T22:07:33.262Z,73.49
2018-06-27T22:08:12.281Z,74.65
2018-06-27T22:09:12.365Z,74.36
2018-06-27T22:10:12.329Z,74.26
2018-06-27T22:11:12.354Z,74.26
2018-06-27T22:12:12.396Z,74.36
2018-06-27T22:13:33.442Z,74.26
2018-06-27T22:14:12.446Z,74.26
2018-06-27T22:15:12.526Z,73.55
2018-06-27T22:16:12.511Z,73.88
2018-06-27T22:17:12.549Z,73.97
2018-06-27T22:18:12.558Z,74.36
2018-06-27T22:19:33.634Z,74.13
2018-06-27T22:20:12.630Z,74.13
2018-06-27T22:21:12.660Z,74.71
2018-06-27T22:22:12.674Z,74.36
2018-06-27T22:23:12.709Z,75.09
2018-06-27T22:24:12.747Z,74.22
2018-06-27T22:25:33.809Z,73.74
2018-06-27T22:26:12.807Z,74.03
2018-06-27T22:27:12.821Z,73.58
2018-06-27T22:28:12.848Z,74.22
2018-06-27T22:29:12.897Z,74.03
2018-06-27T22:30:12.908Z,74.13
2018-06-27T22:31:33.961Z,74.13
2018-06-27T22:32:12.962Z,74.51
2018-06-27T22:33:13.004Z,74.51
2018-06-27T22:34:13.035Z,74.32
2018-06-27T22:35:13.042Z,74.03
2018-06-27T22:36:13.088Z,74.41
2018-06-27T22:37:34.130Z,74.71
2018-06-27T22:38:13.148Z,74.22
2018-06-27T22:39:13.175Z,74.22
2018-06-27T22:40:13.200Z,74.13
2018-06-27T22:41:13.231Z,74.22
2018-06-27T22:42:13.255Z,74.03
2018-06-27T22:43:34.299Z,74.41
2018-06-27T22:44:13.327Z,74.51
2018-06-27T22:45:13.342Z,74.32
2018-06-27T22:46:13.369Z,74.61
2018-06-27T22:47:13.393Z,74.99
2018-06-27T22:48:13.422Z,74.32
2018-06-27T22:49:34.497Z,74.61
2018-06-27T22:50:13.493Z,73.74
2018-06-27T22:51:13.540Z,74.22
2018-06-27T22:52:13.546Z,73.84
2018-06-27T22:53:13.580Z,74.41
2018-06-27T22:54:13.606Z,75.09
2018-06-27T22:55:34.649Z,74.61
2018-06-27T22:56:13.653Z,74.90
2018-06-27T22:57:13.699Z,74.03
2018-06-27T22:58:13.737Z,75.28
2018-06-27T22:59:13.746Z,74.03
2018-06-27T23:00:13.775Z,74.13
2018-06-27T23:01:34.824Z,73.55
2018-06-27T23:02:13.835Z,74.13
2018-06-27T23:03:13.861Z,74.51
2018-06-27T23:04:13.922Z,74.13
2018-06-27T23:05:13.922Z,73.94
2018-06-27T23:06:13.953Z,73.84
2018-06-27T23:07:35.003Z,74.22
2018-06-27T23:08:14.129Z,74.41
2018-06-27T23:09:14.033Z,74.41
2018-06-27T23:10:14.100Z,74.71
2018-06-27T23:11:14.102Z,73.46
2018-06-27T23:12:14.127Z,73.55
2018-06-27T23:13:35.165Z,74.32
2018-06-27T23:14:14.177Z,73.94
2018-06-27T23:15:14.199Z,74.32
2018-06-27T23:16:14.237Z,74.41
2018-06-27T23:17:14.279Z,74.51
2018-06-27T23:18:14.306Z,74.61
2018-06-27T23:19:35.336Z,74.22
2018-06-27T23:20:14.350Z,74.32
2018-06-27T23:21:14.386Z,74.22
2018-06-27T23:22:14.422Z,74.03
2018-06-27T23:23:14.427Z,73.84
2018-06-27T23:24:14.492Z,74.22
2018-06-27T23:25:35.525Z,74.32
2018-06-27T23:26:14.528Z,73.80
2018-06-27T23:27:14.557Z,74.29
2018-06-27T23:28:14.591Z,74.48
2018-06-27T23:29:14.630Z,74.86
2018-06-27T23:30:14.639Z,73.71
2018-06-27T23:31:35.701Z,73.84
2018-06-27T23:32:14.692Z,74.22
2018-06-27T23:33:14.728Z,74.57
2018-06-27T23:34:14.771Z,73.90
2018-06-27T23:35:14.794Z,74.19
2018-06-27T23:36:14.806Z,74.67
2018-06-27T23:37:35.855Z,75.05
2018-06-27T23:38:14.886Z,75.15
2018-06-27T23:39:14.897Z,74.57
2018-06-27T23:40:14.925Z,74.48
2018-06-27T23:41:14.968Z,74.29
2018-06-27T23:42:14.993Z,74.38
2018-06-27T23:43:36.031Z,74.48
2018-06-27T23:44:15.045Z,74.09
2018-06-27T23:45:15.079Z,74.19
2018-06-27T23:46:15.103Z,74.76
2018-06-27T23:47:15.133Z,74.38
2018-06-27T23:48:15.155Z,74.38
2018-06-27T23:49:36.278Z,75.05
2018-06-27T23:50:15.224Z,75.24
2018-06-27T23:51:15.248Z,75.05
2018-06-27T23:52:15.274Z,74.38
2018-06-27T23:53:15.318Z,75.44
2018-06-27T23:54:15.332Z,75.54
2018-06-27T23:55:36.387Z,75.44
2018-06-27T23:56:15.397Z,75.34
2018-06-27T23:57:15.430Z,75.15
2018-06-27T23:58:15.447Z,75.44
2018-06-27T23:59:15.484Z,75.63
